createdAt,value
2017-10-02T00:03:19.778Z,1007.7
2017-10-02T00:13:33.852Z,1007.6
2017-10-02T00:23:47.279Z,1007.4
2017-10-02T00:34:00.461Z,1007.3
2017-10-02T00:44:14.832Z,1007.2
2017-10-02T00:54:28.943Z,1007.2
2017-10-02T01:04:42.500Z,1007
2017-10-02T01:14:52.768Z,1006.8
2017-10-02T01:25:06.869Z,1006.3
2017-10-02T01:35:21.251Z,1006
2017-10-02T01:45:35.856Z,1006
2017-10-02T01:55:49.350Z,1005.9
2017-10-02T02:06:03.473Z,1005.7
2017-10-02T02:16:16.713Z,1005.7
2017-10-02T02:26:31.003Z,1005.4
2017-10-02T02:36:45.895Z,1005.4
2017-10-02T02:46:59.767Z,1005.6
2017-10-02T02:57:13.369Z,1005.6
2017-10-02T03:07:27.552Z,1005.4
2017-10-02T03:17:42.099Z,1005.4
2017-10-02T03:27:52.376Z,1005.4
2017-10-02T03:38:05.769Z,1005.3
2017-10-02T03:48:20.138Z,1005.2
2017-10-02T03:58:33.215Z,1005.1
2017-10-02T04:08:46.836Z,1005
2017-10-02T04:19:00.858Z,1005
2017-10-02T04:29:15.497Z,1005
2017-10-02T04:39:29.628Z,1004.8
2017-10-02T04:49:43.284Z,1004.8
2017-10-02T04:59:57.257Z,1004.6
2017-10-02T05:10:10.589Z,1004.7
2017-10-02T05:20:24.700Z,1004.5
2017-10-02T05:30:39.139Z,1004.5
2017-10-02T05:40:49.395Z,1004.4
2017-10-02T06:01:17.419Z,1004.1
2017-10-02T06:11:30.680Z,1004.1
2017-10-02T06:21:44.130Z,1004.5
2017-10-02T06:31:59.132Z,1004.4
2017-10-02T06:42:14.078Z,1004.4
2017-10-02T06:52:27.952Z,1004.3
2017-10-02T07:02:41.595Z,1004.3
2017-10-02T07:12:54.789Z,1004.2
2017-10-02T07:23:08.559Z,1004.3
2017-10-02T07:33:21.923Z,1004.1
2017-10-02T07:43:37.019Z,1003.9
2017-10-02T07:53:47.287Z,1003.8
2017-10-02T08:04:00.627Z,1003.9
2017-10-02T08:14:15.266Z,1004
2017-10-02T08:24:29.048Z,1004.5
2017-10-02T08:34:43.533Z,1004.3
2017-10-02T08:44:57.773Z,1004.5
2017-10-02T08:55:11.086Z,1004.6
2017-10-02T09:05:24.215Z,1004.6
2017-10-02T09:15:37.889Z,1004.6
2017-10-02T09:25:51.620Z,1004.5
2017-10-02T09:36:05.863Z,1004.6
2017-10-02T09:46:20.053Z,1004.4
2017-10-02T09:56:34.724Z,1004.4
2017-10-02T10:06:45.000Z,1004.3
2017-10-02T10:17:00.187Z,1004.4
2017-10-02T10:27:15.036Z,1004.3
2017-10-02T10:37:29.865Z,1004.4
2017-10-02T10:47:43.380Z,1004.6
2017-10-02T10:57:57.505Z,1004.5
2017-10-02T11:08:11.731Z,1004.4
2017-10-02T11:18:24.997Z,1004.4
2017-10-02T11:28:39.285Z,1004.3
2017-10-02T11:38:53.705Z,1004.2
2017-10-02T11:49:07.610Z,1004.2
2017-10-02T11:59:20.681Z,1004.3
2017-10-02T12:09:34.564Z,1004.8
2017-10-02T12:19:44.904Z,1004.5
2017-10-02T12:29:59.936Z,1004.6
2017-10-02T12:40:14.448Z,1005
2017-10-02T12:50:28.288Z,1004.9
2017-10-02T13:00:43.428Z,1004.5
2017-10-02T13:10:56.841Z,1004.3
2017-10-02T13:21:11.076Z,1004.6
2017-10-02T13:31:25.252Z,1004.6
2017-10-02T13:41:39.531Z,1004.4
2017-10-02T13:51:53.342Z,1004.5
2017-10-02T14:02:07.401Z,1004.4
2017-10-02T14:12:21.131Z,1004.5
2017-10-02T14:22:34.431Z,1004.5
2017-10-02T14:32:44.823Z,1004.2
2017-10-02T14:42:59.205Z,1004
2017-10-02T14:53:13.191Z,1004.4
2017-10-02T15:03:27.689Z,1004.2
2017-10-02T15:13:42.539Z,1004.3
2017-10-02T15:23:56.598Z,1004.1
2017-10-02T15:34:11.432Z,1004.3
2017-10-02T15:44:26.196Z,1004.5
2017-10-02T15:54:41.184Z,1004.6
2017-10-02T16:04:55.399Z,1004.9
2017-10-02T16:15:09.703Z,1004.7
2017-10-02T16:25:22.851Z,1004.5
2017-10-02T16:35:36.404Z,1004.5
2017-10-02T16:45:46.683Z,1004.8
2017-10-02T16:56:00.106Z,1004.7
2017-10-02T17:06:13.773Z,1004.6
2017-10-02T17:16:27.187Z,1004.7
2017-10-02T17:26:41.384Z,1004.6
2017-10-02T17:36:56.244Z,1004.7
2017-10-02T17:47:09.413Z,1004.8
2017-10-02T17:57:23.210Z,1004.9
2017-10-02T18:07:36.994Z,1004.7
2017-10-02T18:17:50.867Z,1004.8
2017-10-02T18:28:04.366Z,1004.9
2017-10-02T18:38:17.572Z,1004.8
2017-10-02T18:48:30.805Z,1004.9
2017-10-02T18:58:41.070Z,1004.9
2017-10-02T19:08:54.494Z,1005
2017-10-02T19:19:08.996Z,1004.9
2017-10-02T19:29:23.875Z,1005
2017-10-02T19:39:37.164Z,1004.8
2017-10-02T19:49:51.059Z,1004.7
2017-10-02T20:00:05.799Z,1004.6
2017-10-02T20:10:18.927Z,1004.8
2017-10-02T20:20:34.108Z,1004.6
2017-10-02T20:30:47.118Z,1004.7
2017-10-02T20:41:00.364Z,1004.7
2017-10-02T20:51:15.383Z,1004.8
2017-10-02T21:01:30.214Z,1004.7
2017-10-02T21:11:40.464Z,1004.7
2017-10-02T21:21:54.177Z,1004.8
2017-10-02T21:32:07.811Z,1004.8
2017-10-02T21:42:22.521Z,1004.8
2017-10-02T21:52:35.880Z,1004.8
2017-10-02T22:02:49.314Z,1004.5
2017-10-02T22:13:03.449Z,1004.5
2017-10-02T22:23:18.204Z,1004.6
2017-10-02T22:33:32.205Z,1004.7
2017-10-02T22:43:46.472Z,1004.7
2017-10-02T22:54:00.543Z,1004.6
2017-10-02T23:04:14.341Z,1004.6
2017-10-02T23:14:28.210Z,1004.4
2017-10-02T23:24:38.469Z,1004.5
2017-10-02T23:34:51.930Z,1004.6
2017-10-02T23:45:06.463Z,1004.7
2017-10-02T23:55:20.845Z,1004.8
